sensor_id;sensor_type;location;lat;lon;timestamp;P1;durP1;ratioP1;P2;durP2;ratioP2
56493;SDS011;42392;42.648;27.652;2024-01-27T00:00:19;29.98;;;17.52;;
56493;SDS011;42392;42.648;27.652;2024-01-27T00:02:21;34.55;;;17.30;;
56493;SDS011;42392;42.648;27.652;2024-01-27T00:04:23;35.78;;;19.42;;
56493;SDS011;42392;42.648;27.652;2024-01-27T00:06:25;27.98;;;16.63;;
56493;SDS011;42392;42.648;27.652;2024-01-27T00:08:28;31.70;;;16.38;;
56493;SDS011;42392;42.648;27.652;2024-01-27T00:10:29;31.15;;;18.52;;
56493;SDS011;42392;42.648;27.652;2024-01-27T00:12:32;35.40;;;17.02;;
56493;SDS011;42392;42.648;27.652;2024-01-27T00:14:37;36.63;;;17.65;;
56493;SDS011;42392;42.648;27.652;2024-01-27T00:16:40;39.28;;;18.92;;
56493;SDS011;42392;42.648;27.652;2024-01-27T00:18:42;28.10;;;15.35;;
56493;SDS011;42392;42.648;27.652;2024-01-27T00:20:44;30.08;;;16.17;;
56493;SDS011;42392;42.648;27.652;2024-01-27T00:22:46;29.05;;;15.95;;
56493;SDS011;42392;42.648;27.652;2024-01-27T00:24:48;46.08;;;29.67;;
56493;SDS011;42392;42.648;27.652;2024-01-27T00:26:50;24.73;;;14.60;;
56493;SDS011;42392;42.648;27.652;2024-01-27T00:28:52;25.88;;;12.10;;
56493;SDS011;42392;42.648;27.652;2024-01-27T00:30:55;17.27;;;9.43;;
56493;SDS011;42392;42.648;27.652;2024-01-27T00:32:57;22.00;;;9.05;;
56493;SDS011;42392;42.648;27.652;2024-01-27T00:34:59;19.60;;;7.85;;
56493;SDS011;42392;42.648;27.652;2024-01-27T00:37:01;20.67;;;8.85;;
56493;SDS011;42392;42.648;27.652;2024-01-27T00:39:03;16.15;;;8.98;;
56493;SDS011;42392;42.648;27.652;2024-01-27T00:41:06;20.73;;;10.02;;
56493;SDS011;42392;42.648;27.652;2024-01-27T00:43:08;14.55;;;7.13;;
56493;SDS011;42392;42.648;27.652;2024-01-27T00:45:10;17.48;;;7.95;;
56493;SDS011;42392;42.648;27.652;2024-01-27T00:47:12;17.15;;;8.20;;
56493;SDS011;42392;42.648;27.652;2024-01-27T00:49:14;17.55;;;7.78;;
56493;SDS011;42392;42.648;27.652;2024-01-27T00:51:16;19.58;;;9.35;;
56493;SDS011;42392;42.648;27.652;2024-01-27T00:53:18;16.50;;;8.68;;
56493;SDS011;42392;42.648;27.652;2024-01-27T00:55:20;12.82;;;5.75;;
56493;SDS011;42392;42.648;27.652;2024-01-27T00:57:22;13.02;;;6.85;;
56493;SDS011;42392;42.648;27.652;2024-01-27T00:59:24;18.27;;;7.93;;
56493;SDS011;42392;42.648;27.652;2024-01-27T01:01:26;13.35;;;5.18;;
56493;SDS011;42392;42.648;27.652;2024-01-27T01:03:28;12.82;;;5.40;;
56493;SDS011;42392;42.648;27.652;2024-01-27T01:05:31;14.70;;;6.72;;
56493;SDS011;42392;42.648;27.652;2024-01-27T01:07:33;16.20;;;7.50;;
56493;SDS011;42392;42.648;27.652;2024-01-27T01:09:35;17.15;;;7.30;;
56493;SDS011;42392;42.648;27.652;2024-01-27T01:11:37;14.90;;;5.30;;
56493;SDS011;42392;42.648;27.652;2024-01-27T01:13:40;8.50;;;4.13;;
56493;SDS011;42392;42.648;27.652;2024-01-27T01:15:42;11.10;;;5.35;;
56493;SDS011;42392;42.648;27.652;2024-01-27T01:17:45;8.90;;;3.97;;
56493;SDS011;42392;42.648;27.652;2024-01-27T01:19:47;8.75;;;3.97;;
56493;SDS011;42392;42.648;27.652;2024-01-27T01:21:49;11.55;;;4.72;;
56493;SDS011;42392;42.648;27.652;2024-01-27T01:23:51;11.25;;;4.25;;
56493;SDS011;42392;42.648;27.652;2024-01-27T01:25:53;12.98;;;4.30;;
56493;SDS011;42392;42.648;27.652;2024-01-27T01:27:55;9.55;;;3.83;;
56493;SDS011;42392;42.648;27.652;2024-01-27T01:29:57;13.88;;;4.30;;
56493;SDS011;42392;42.648;27.652;2024-01-27T01:31:59;10.27;;;4.40;;
56493;SDS011;42392;42.648;27.652;2024-01-27T01:34:04;13.05;;;5.03;;
56493;SDS011;42392;42.648;27.652;2024-01-27T01:36:06;15.77;;;7.63;;
56493;SDS011;42392;42.648;27.652;2024-01-27T01:38:08;16.33;;;5.32;;
56493;SDS011;42392;42.648;27.652;2024-01-27T01:40:10;10.80;;;4.03;;
56493;SDS011;42392;42.648;27.652;2024-01-27T01:42:13;8.52;;;2.85;;
56493;SDS011;42392;42.648;27.652;2024-01-27T01:44:16;15.55;;;6.72;;
56493;SDS011;42392;42.648;27.652;2024-01-27T01:46:18;11.98;;;5.35;;
56493;SDS011;42392;42.648;27.652;2024-01-27T01:48:20;12.82;;;5.57;;
56493;SDS011;42392;42.648;27.652;2024-01-27T01:50:22;14.90;;;4.95;;
56493;SDS011;42392;42.648;27.652;2024-01-27T01:52:24;11.93;;;5.10;;
56493;SDS011;42392;42.648;27.652;2024-01-27T01:54:26;9.82;;;4.70;;
56493;SDS011;42392;42.648;27.652;2024-01-27T01:56:42;8.13;;;4.00;;
56493;SDS011;42392;42.648;27.652;2024-01-27T01:58:45;12.32;;;5.03;;
56493;SDS011;42392;42.648;27.652;2024-01-27T02:00:47;14.57;;;6.05;;
56493;SDS011;42392;42.648;27.652;2024-01-27T02:02:49;13.85;;;6.38;;
56493;SDS011;42392;42.648;27.652;2024-01-27T02:04:51;15.75;;;7.30;;
56493;SDS011;42392;42.648;27.652;2024-01-27T02:06:53;15.65;;;7.35;;
56493;SDS011;42392;42.648;27.652;2024-01-27T02:08:55;12.88;;;6.25;;
56493;SDS011;42392;42.648;27.652;2024-01-27T02:10:57;16.08;;;6.95;;
56493;SDS011;42392;42.648;27.652;2024-01-27T02:12:59;17.27;;;8.10;;
56493;SDS011;42392;42.648;27.652;2024-01-27T02:15:01;15.90;;;7.40;;
56493;SDS011;42392;42.648;27.652;2024-01-27T02:17:04;17.52;;;7.53;;
56493;SDS011;42392;42.648;27.652;2024-01-27T02:19:07;17.75;;;8.20;;
56493;SDS011;42392;42.648;27.652;2024-01-27T02:21:09;21.80;;;8.93;;
56493;SDS011;42392;42.648;27.652;2024-01-27T02:23:13;13.27;;;6.00;;
56493;SDS011;42392;42.648;27.652;2024-01-27T02:25:15;11.15;;;4.63;;
56493;SDS011;42392;42.648;27.652;2024-01-27T02:27:17;10.23;;;5.38;;
56493;SDS011;42392;42.648;27.652;2024-01-27T02:29:19;12.80;;;5.63;;
56493;SDS011;42392;42.648;27.652;2024-01-27T02:31:22;11.40;;;5.68;;
56493;SDS011;42392;42.648;27.652;2024-01-27T02:33:24;13.30;;;5.78;;
56493;SDS011;42392;42.648;27.652;2024-01-27T02:35:27;11.45;;;5.32;;
56493;SDS011;42392;42.648;27.652;2024-01-27T02:37:29;11.10;;;6.13;;
56493;SDS011;42392;42.648;27.652;2024-01-27T02:39:31;14.40;;;6.90;;
56493;SDS011;42392;42.648;27.652;2024-01-27T02:41:33;14.07;;;9.60;;
56493;SDS011;42392;42.648;27.652;2024-01-27T02:43:40;12.40;;;5.70;;
56493;SDS011;42392;42.648;27.652;2024-01-27T02:45:42;13.30;;;7.32;;
56493;SDS011;42392;42.648;27.652;2024-01-27T02:47:44;10.40;;;5.38;;
56493;SDS011;42392;42.648;27.652;2024-01-27T02:49:49;12.30;;;5.30;;
56493;SDS011;42392;42.648;27.652;2024-01-27T02:51:51;15.43;;;5.80;;
56493;SDS011;42392;42.648;27.652;2024-01-27T02:53:53;14.52;;;6.03;;
56493;SDS011;42392;42.648;27.652;2024-01-27T02:55:55;10.02;;;4.97;;
56493;SDS011;42392;42.648;27.652;2024-01-27T02:57:57;9.45;;;4.65;;
56493;SDS011;42392;42.648;27.652;2024-01-27T02:59:59;12.77;;;5.70;;
56493;SDS011;42392;42.648;27.652;2024-01-27T03:02:01;12.05;;;5.63;;
56493;SDS011;42392;42.648;27.652;2024-01-27T03:04:03;11.82;;;5.47;;
56493;SDS011;42392;42.648;27.652;2024-01-27T03:06:05;14.23;;;6.68;;
56493;SDS011;42392;42.648;27.652;2024-01-27T03:08:07;16.23;;;7.82;;
56493;SDS011;42392;42.648;27.652;2024-01-27T03:10:09;25.42;;;11.23;;
56493;SDS011;42392;42.648;27.652;2024-01-27T03:12:12;22.40;;;10.55;;
56493;SDS011;42392;42.648;27.652;2024-01-27T03:14:16;20.88;;;10.07;;
56493;SDS011;42392;42.648;27.652;2024-01-27T03:16:18;24.25;;;10.52;;
56493;SDS011;42392;42.648;27.652;2024-01-27T03:18:21;26.98;;;11.88;;
56493;SDS011;42392;42.648;27.652;2024-01-27T03:20:23;15.07;;;5.65;;
56493;SDS011;42392;42.648;27.652;2024-01-27T03:22:25;24.90;;;9.75;;
56493;SDS011;42392;42.648;27.652;2024-01-27T03:24:27;14.32;;;6.00;;
56493;SDS011;42392;42.648;27.652;2024-01-27T03:26:29;13.10;;;6.20;;
56493;SDS011;42392;42.648;27.652;2024-01-27T03:28:31;14.30;;;5.15;;
56493;SDS011;42392;42.648;27.652;2024-01-27T03:30:33;15.73;;;6.18;;
56493;SDS011;42392;42.648;27.652;2024-01-27T03:32:35;12.70;;;5.75;;
56493;SDS011;42392;42.648;27.652;2024-01-27T03:34:42;39.72;;;17.80;;
56493;SDS011;42392;42.648;27.652;2024-01-27T03:36:50;40.75;;;20.05;;
56493;SDS011;42392;42.648;27.652;2024-01-27T03:38:52;17.15;;;8.27;;
56493;SDS011;42392;42.648;27.652;2024-01-27T03:40:54;19.05;;;8.75;;
56493;SDS011;42392;42.648;27.652;2024-01-27T03:42:56;14.43;;;6.28;;
56493;SDS011;42392;42.648;27.652;2024-01-27T03:44:58;12.85;;;5.78;;
56493;SDS011;42392;42.648;27.652;2024-01-27T03:47:00;8.30;;;2.92;;
56493;SDS011;42392;42.648;27.652;2024-01-27T03:49:02;5.25;;;2.50;;
56493;SDS011;42392;42.648;27.652;2024-01-27T03:51:05;10.73;;;4.05;;
56493;SDS011;42392;42.648;27.652;2024-01-27T03:53:07;18.30;;;11.52;;
56493;SDS011;42392;42.648;27.652;2024-01-27T03:55:09;15.85;;;10.32;;
56493;SDS011;42392;42.648;27.652;2024-01-27T03:57:11;19.23;;;7.72;;
56493;SDS011;42392;42.648;27.652;2024-01-27T03:59:13;13.30;;;7.88;;
56493;SDS011;42392;42.648;27.652;2024-01-27T04:01:15;27.85;;;17.48;;
56493;SDS011;42392;42.648;27.652;2024-01-27T04:03:17;15.25;;;8.40;;
56493;SDS011;42392;42.648;27.652;2024-01-27T04:05:19;28.77;;;18.85;;
56493;SDS011;42392;42.648;27.652;2024-01-27T04:07:21;26.85;;;15.23;;
56493;SDS011;42392;42.648;27.652;2024-01-27T04:09:23;21.55;;;11.95;;
56493;SDS011;42392;42.648;27.652;2024-01-27T04:11:25;14.73;;;8.70;;
56493;SDS011;42392;42.648;27.652;2024-01-27T04:13:27;19.33;;;9.45;;
56493;SDS011;42392;42.648;27.652;2024-01-27T04:15:29;20.55;;;9.27;;
56493;SDS011;42392;42.648;27.652;2024-01-27T04:17:32;38.25;;;24.98;;
56493;SDS011;42392;42.648;27.652;2024-01-27T04:19:34;27.60;;;15.35;;
56493;SDS011;42392;42.648;27.652;2024-01-27T04:21:36;45.55;;;24.73;;
56493;SDS011;42392;42.648;27.652;2024-01-27T04:23:38;26.73;;;13.75;;
56493;SDS011;42392;42.648;27.652;2024-01-27T04:25:40;19.42;;;12.35;;
56493;SDS011;42392;42.648;27.652;2024-01-27T04:27:42;21.25;;;11.65;;
56493;SDS011;42392;42.648;27.652;2024-01-27T04:29:44;14.20;;;7.88;;
56493;SDS011;42392;42.648;27.652;2024-01-27T04:31:47;16.80;;;8.20;;
56493;SDS011;42392;42.648;27.652;2024-01-27T04:33:49;16.02;;;7.72;;
56493;SDS011;42392;42.648;27.652;2024-01-27T04:35:51;14.23;;;7.65;;
56493;SDS011;42392;42.648;27.652;2024-01-27T04:37:53;16.52;;;9.93;;
56493;SDS011;42392;42.648;27.652;2024-01-27T04:39:55;14.82;;;9.00;;
56493;SDS011;42392;42.648;27.652;2024-01-27T04:41:57;15.20;;;8.32;;
56493;SDS011;42392;42.648;27.652;2024-01-27T04:44:03;19.15;;;8.65;;
56493;SDS011;42392;42.648;27.652;2024-01-27T04:46:05;13.77;;;7.78;;
56493;SDS011;42392;42.648;27.652;2024-01-27T04:48:08;26.05;;;12.55;;
56493;SDS011;42392;42.648;27.652;2024-01-27T04:50:11;15.88;;;8.73;;
56493;SDS011;42392;42.648;27.652;2024-01-27T04:52:13;16.98;;;8.50;;
56493;SDS011;42392;42.648;27.652;2024-01-27T04:54:15;17.98;;;8.27;;
56493;SDS011;42392;42.648;27.652;2024-01-27T04:56:17;19.10;;;8.18;;
56493;SDS011;42392;42.648;27.652;2024-01-27T04:58:19;27.58;;;16.27;;
56493;SDS011;42392;42.648;27.652;2024-01-27T05:00:21;31.15;;;15.80;;
56493;SDS011;42392;42.648;27.652;2024-01-27T05:02:24;19.65;;;11.55;;
56493;SDS011;42392;42.648;27.652;2024-01-27T05:04:26;19.60;;;8.40;;
56493;SDS011;42392;42.648;27.652;2024-01-27T05:06:28;31.75;;;12.70;;
56493;SDS011;42392;42.648;27.652;2024-01-27T05:08:30;21.55;;;9.30;;
56493;SDS011;42392;42.648;27.652;2024-01-27T05:10:32;71.18;;;25.35;;
56493;SDS011;42392;42.648;27.652;2024-01-27T05:12:34;29.48;;;12.75;;
56493;SDS011;42392;42.648;27.652;2024-01-27T05:14:36;19.00;;;9.25;;
56493;SDS011;42392;42.648;27.652;2024-01-27T05:16:38;27.95;;;13.05;;
56493;SDS011;42392;42.648;27.652;2024-01-27T05:18:40;164.70;;;52.63;;
56493;SDS011;42392;42.648;27.652;2024-01-27T05:20:42;226.50;;;72.10;;
56493;SDS011;42392;42.648;27.652;2024-01-27T05:22:44;187.40;;;65.07;;
56493;SDS011;42392;42.648;27.652;2024-01-27T05:24:47;56.20;;;27.33;;
56493;SDS011;42392;42.648;27.652;2024-01-27T05:26:49;18.63;;;9.70;;
56493;SDS011;42392;42.648;27.652;2024-01-27T05:28:51;17.75;;;11.02;;
56493;SDS011;42392;42.648;27.652;2024-01-27T05:30:53;15.75;;;8.63;;
56493;SDS011;42392;42.648;27.652;2024-01-27T05:32:55;14.60;;;7.00;;
56493;SDS011;42392;42.648;27.652;2024-01-27T05:34:58;10.63;;;5.10;;
56493;SDS011;42392;42.648;27.652;2024-01-27T05:37:00;17.33;;;7.82;;
56493;SDS011;42392;42.648;27.652;2024-01-27T05:39:02;18.00;;;8.40;;
56493;SDS011;42392;42.648;27.652;2024-01-27T05:41:06;20.63;;;9.30;;
56493;SDS011;42392;42.648;27.652;2024-01-27T05:43:08;18.38;;;8.23;;
56493;SDS011;42392;42.648;27.652;2024-01-27T05:45:10;18.48;;;7.70;;
56493;SDS011;42392;42.648;27.652;2024-01-27T05:47:12;15.13;;;7.53;;
56493;SDS011;42392;42.648;27.652;2024-01-27T05:49:17;16.05;;;7.45;;
56493;SDS011;42392;42.648;27.652;2024-01-27T05:51:22;16.27;;;6.47;;
56493;SDS011;42392;42.648;27.652;2024-01-27T05:53:25;12.27;;;6.47;;
56493;SDS011;42392;42.648;27.652;2024-01-27T05:55:27;17.58;;;8.77;;
56493;SDS011;42392;42.648;27.652;2024-01-27T05:57:29;31.13;;;12.10;;
56493;SDS011;42392;42.648;27.652;2024-01-27T05:59:31;33.35;;;13.40;;
56493;SDS011;42392;42.648;27.652;2024-01-27T06:01:33;45.72;;;23.58;;
56493;SDS011;42392;42.648;27.652;2024-01-27T06:03:35;37.28;;;23.25;;
56493;SDS011;42392;42.648;27.652;2024-01-27T06:05:37;16.48;;;9.48;;
56493;SDS011;42392;42.648;27.652;2024-01-27T06:07:40;33.50;;;16.73;;
56493;SDS011;42392;42.648;27.652;2024-01-27T06:09:42;31.25;;;15.68;;
56493;SDS011;42392;42.648;27.652;2024-01-27T06:11:44;21.02;;;9.15;;
56493;SDS011;42392;42.648;27.652;2024-01-27T06:13:47;18.55;;;10.30;;
56493;SDS011;42392;42.648;27.652;2024-01-27T06:15:50;27.67;;;15.35;;
56493;SDS011;42392;42.648;27.652;2024-01-27T06:17:52;23.27;;;11.32;;
56493;SDS011;42392;42.648;27.652;2024-01-27T06:19:54;25.15;;;10.50;;
56493;SDS011;42392;42.648;27.652;2024-01-27T06:21:56;46.67;;;18.60;;
56493;SDS011;42392;42.648;27.652;2024-01-27T06:23:58;17.10;;;8.48;;
56493;SDS011;42392;42.648;27.652;2024-01-27T06:26:07;47.03;;;19.05;;
56493;SDS011;42392;42.648;27.652;2024-01-27T06:28:09;87.75;;;27.92;;
56493;SDS011;42392;42.648;27.652;2024-01-27T06:30:12;49.30;;;19.85;;
56493;SDS011;42392;42.648;27.652;2024-01-27T06:32:16;119.70;;;40.03;;
56493;SDS011;42392;42.648;27.652;2024-01-27T06:34:18;66.72;;;23.35;;
56493;SDS011;42392;42.648;27.652;2024-01-27T06:36:20;76.55;;;28.30;;
56493;SDS011;42392;42.648;27.652;2024-01-27T06:38:26;28.38;;;14.90;;
56493;SDS011;42392;42.648;27.652;2024-01-27T06:40:29;47.97;;;23.45;;
56493;SDS011;42392;42.648;27.652;2024-01-27T06:42:31;108.35;;;42.13;;
56493;SDS011;42392;42.648;27.652;2024-01-27T06:44:33;100.45;;;38.03;;
56493;SDS011;42392;42.648;27.652;2024-01-27T06:46:35;42.80;;;19.55;;
56493;SDS011;42392;42.648;27.652;2024-01-27T06:48:37;33.63;;;20.48;;
56493;SDS011;42392;42.648;27.652;2024-01-27T06:50:40;28.02;;;15.18;;
56493;SDS011;42392;42.648;27.652;2024-01-27T06:52:42;52.03;;;26.13;;
56493;SDS011;42392;42.648;27.652;2024-01-27T06:54:44;40.25;;;18.83;;
56493;SDS011;42392;42.648;27.652;2024-01-27T06:56:46;54.95;;;22.52;;
56493;SDS011;42392;42.648;27.652;2024-01-27T06:58:48;34.00;;;15.43;;
56493;SDS011;42392;42.648;27.652;2024-01-27T07:00:50;22.17;;;10.90;;
56493;SDS011;42392;42.648;27.652;2024-01-27T07:02:52;20.88;;;11.85;;
56493;SDS011;42392;42.648;27.652;2024-01-27T07:04:55;34.72;;;17.90;;
56493;SDS011;42392;42.648;27.652;2024-01-27T07:06:57;44.28;;;26.45;;
56493;SDS011;42392;42.648;27.652;2024-01-27T07:08:59;29.85;;;15.13;;
56493;SDS011;42392;42.648;27.652;2024-01-27T07:11:03;42.13;;;19.10;;
56493;SDS011;42392;42.648;27.652;2024-01-27T07:13:05;51.00;;;22.42;;
56493;SDS011;42392;42.648;27.652;2024-01-27T07:15:10;52.17;;;27.42;;
56493;SDS011;42392;42.648;27.652;2024-01-27T07:17:12;67.95;;;31.63;;
56493;SDS011;42392;42.648;27.652;2024-01-27T07:19:14;68.65;;;40.00;;
56493;SDS011;42392;42.648;27.652;2024-01-27T07:21:17;42.97;;;22.02;;
56493;SDS011;42392;42.648;27.652;2024-01-27T07:23:19;44.33;;;26.98;;
56493;SDS011;42392;42.648;27.652;2024-01-27T07:25:22;38.08;;;22.15;;
56493;SDS011;42392;42.648;27.652;2024-01-27T07:27:24;31.20;;;17.92;;
56493;SDS011;42392;42.648;27.652;2024-01-27T07:29:27;34.80;;;17.67;;
56493;SDS011;42392;42.648;27.652;2024-01-27T07:31:29;29.17;;;14.77;;
56493;SDS011;42392;42.648;27.652;2024-01-27T07:33:32;25.73;;;13.65;;
56493;SDS011;42392;42.648;27.652;2024-01-27T07:35:34;36.33;;;17.13;;
56493;SDS011;42392;42.648;27.652;2024-01-27T07:37:36;39.28;;;19.40;;
56493;SDS011;42392;42.648;27.652;2024-01-27T07:39:39;46.22;;;21.20;;
56493;SDS011;42392;42.648;27.652;2024-01-27T07:41:41;50.40;;;24.10;;
56493;SDS011;42392;42.648;27.652;2024-01-27T07:43:44;36.83;;;16.95;;
56493;SDS011;42392;42.648;27.652;2024-01-27T07:45:46;44.97;;;20.40;;
56493;SDS011;42392;42.648;27.652;2024-01-27T07:47:48;45.88;;;19.88;;
56493;SDS011;42392;42.648;27.652;2024-01-27T07:49:50;48.78;;;23.58;;
56493;SDS011;42392;42.648;27.652;2024-01-27T07:51:52;47.53;;;22.13;;
56493;SDS011;42392;42.648;27.652;2024-01-27T07:53:55;30.70;;;15.98;;
56493;SDS011;42392;42.648;27.652;2024-01-27T07:55:57;46.30;;;17.40;;
56493;SDS011;42392;42.648;27.652;2024-01-27T07:57:59;39.70;;;15.93;;
56493;SDS011;42392;42.648;27.652;2024-01-27T08:00:01;16.15;;;7.75;;
56493;SDS011;42392;42.648;27.652;2024-01-27T08:02:03;68.47;;;25.73;;
56493;SDS011;42392;42.648;27.652;2024-01-27T08:04:05;101.22;;;32.90;;
56493;SDS011;42392;42.648;27.652;2024-01-27T08:06:13;35.65;;;18.17;;
56493;SDS011;42392;42.648;27.652;2024-01-27T08:08:18;29.17;;;13.05;;
56493;SDS011;42392;42.648;27.652;2024-01-27T08:10:20;35.83;;;17.35;;
56493;SDS011;42392;42.648;27.652;2024-01-27T08:12:22;34.88;;;18.38;;
56493;SDS011;42392;42.648;27.652;2024-01-27T08:14:24;23.25;;;14.15;;
56493;SDS011;42392;42.648;27.652;2024-01-27T08:16:26;24.42;;;12.35;;
56493;SDS011;42392;42.648;27.652;2024-01-27T08:18:28;29.00;;;15.23;;
56493;SDS011;42392;42.648;27.652;2024-01-27T08:20:30;26.13;;;12.98;;
56493;SDS011;42392;42.648;27.652;2024-01-27T08:22:32;46.08;;;19.92;;
56493;SDS011;42392;42.648;27.652;2024-01-27T08:24:35;30.70;;;13.48;;
56493;SDS011;42392;42.648;27.652;2024-01-27T08:26:37;20.75;;;9.65;;
56493;SDS011;42392;42.648;27.652;2024-01-27T08:28:41;27.90;;;12.52;;
56493;SDS011;42392;42.648;27.652;2024-01-27T08:30:44;23.63;;;12.32;;
56493;SDS011;42392;42.648;27.652;2024-01-27T08:32:46;30.73;;;14.98;;
56493;SDS011;42392;42.648;27.652;2024-01-27T08:34:48;21.58;;;12.02;;
56493;SDS011;42392;42.648;27.652;2024-01-27T08:36:50;20.73;;;10.90;;
56493;SDS011;42392;42.648;27.652;2024-01-27T08:38:52;159.25;;;62.83;;
56493;SDS011;42392;42.648;27.652;2024-01-27T08:40:55;21.35;;;9.95;;
56493;SDS011;42392;42.648;27.652;2024-01-27T08:42:57;20.90;;;10.60;;
56493;SDS011;42392;42.648;27.652;2024-01-27T08:44:59;19.73;;;9.90;;
56493;SDS011;42392;42.648;27.652;2024-01-27T08:47:01;24.88;;;10.57;;
56493;SDS011;42392;42.648;27.652;2024-01-27T08:49:06;13.73;;;6.53;;
56493;SDS011;42392;42.648;27.652;2024-01-27T08:51:09;13.55;;;5.82;;
56493;SDS011;42392;42.648;27.652;2024-01-27T08:53:11;12.80;;;6.57;;
56493;SDS011;42392;42.648;27.652;2024-01-27T08:55:13;17.27;;;8.70;;
56493;SDS011;42392;42.648;27.652;2024-01-27T08:57:16;18.88;;;10.88;;
56493;SDS011;42392;42.648;27.652;2024-01-27T08:59:18;21.90;;;11.27;;
56493;SDS011;42392;42.648;27.652;2024-01-27T09:01:20;28.77;;;15.38;;
56493;SDS011;42392;42.648;27.652;2024-01-27T09:03:22;15.75;;;8.25;;
56493;SDS011;42392;42.648;27.652;2024-01-27T09:05:24;22.40;;;9.77;;
56493;SDS011;42392;42.648;27.652;2024-01-27T09:07:27;14.52;;;7.10;;
56493;SDS011;42392;42.648;27.652;2024-01-27T09:09:30;11.30;;;5.43;;
56493;SDS011;42392;42.648;27.652;2024-01-27T09:11:32;15.10;;;8.70;;
56493;SDS011;42392;42.648;27.652;2024-01-27T09:13:35;14.45;;;6.00;;
56493;SDS011;42392;42.648;27.652;2024-01-27T09:15:37;42.45;;;20.77;;
56493;SDS011;42392;42.648;27.652;2024-01-27T09:17:40;11.25;;;5.13;;
56493;SDS011;42392;42.648;27.652;2024-01-27T09:19:44;14.90;;;7.82;;
56493;SDS011;42392;42.648;27.652;2024-01-27T09:21:46;11.02;;;4.45;;
56493;SDS011;42392;42.648;27.652;2024-01-27T09:23:48;15.10;;;7.15;;
56493;SDS011;42392;42.648;27.652;2024-01-27T09:25:50;14.43;;;7.07;;
56493;SDS011;42392;42.648;27.652;2024-01-27T09:27:53;15.38;;;7.90;;
56493;SDS011;42392;42.648;27.652;2024-01-27T09:29:56;13.20;;;5.50;;
56493;SDS011;42392;42.648;27.652;2024-01-27T09:31:58;15.13;;;8.30;;
56493;SDS011;42392;42.648;27.652;2024-01-27T09:34:00;25.00;;;10.07;;
56493;SDS011;42392;42.648;27.652;2024-01-27T09:36:03;15.05;;;5.93;;
56493;SDS011;42392;42.648;27.652;2024-01-27T09:38:06;21.17;;;10.07;;
56493;SDS011;42392;42.648;27.652;2024-01-27T09:40:14;16.33;;;7.97;;
56493;SDS011;42392;42.648;27.652;2024-01-27T09:42:16;15.77;;;7.65;;
56493;SDS011;42392;42.648;27.652;2024-01-27T09:44:22;14.93;;;8.10;;
56493;SDS011;42392;42.648;27.652;2024-01-27T09:46:26;17.10;;;7.57;;
56493;SDS011;42392;42.648;27.652;2024-01-27T09:48:29;22.83;;;9.48;;
56493;SDS011;42392;42.648;27.652;2024-01-27T09:50:31;22.15;;;10.27;;
56493;SDS011;42392;42.648;27.652;2024-01-27T09:52:35;16.50;;;8.35;;
56493;SDS011;42392;42.648;27.652;2024-01-27T09:54:37;18.67;;;9.15;;
56493;SDS011;42392;42.648;27.652;2024-01-27T09:56:39;21.05;;;9.20;;
56493;SDS011;42392;42.648;27.652;2024-01-27T09:58:41;15.65;;;7.65;;
56493;SDS011;42392;42.648;27.652;2024-01-27T10:00:43;13.60;;;7.35;;
56493;SDS011;42392;42.648;27.652;2024-01-27T10:02:46;20.73;;;7.60;;
56493;SDS011;42392;42.648;27.652;2024-01-27T10:04:48;12.25;;;6.20;;
56493;SDS011;42392;42.648;27.652;2024-01-27T10:06:51;18.95;;;9.23;;
56493;SDS011;42392;42.648;27.652;2024-01-27T10:08:53;15.43;;;8.25;;
56493;SDS011;42392;42.648;27.652;2024-01-27T10:10:56;14.48;;;7.28;;
56493;SDS011;42392;42.648;27.652;2024-01-27T10:12:58;22.50;;;10.63;;
56493;SDS011;42392;42.648;27.652;2024-01-27T10:15:03;34.23;;;17.37;;
56493;SDS011;42392;42.648;27.652;2024-01-27T10:17:09;20.70;;;11.07;;
56493;SDS011;42392;42.648;27.652;2024-01-27T10:19:16;20.30;;;10.32;;
56493;SDS011;42392;42.648;27.652;2024-01-27T10:21:20;25.52;;;10.75;;
56493;SDS011;42392;42.648;27.652;2024-01-27T10:23:24;19.10;;;8.02;;
56493;SDS011;42392;42.648;27.652;2024-01-27T10:25:26;17.23;;;8.40;;
56493;SDS011;42392;42.648;27.652;2024-01-27T10:27:28;14.68;;;6.88;;
56493;SDS011;42392;42.648;27.652;2024-01-27T10:29:30;11.73;;;6.78;;
56493;SDS011;42392;42.648;27.652;2024-01-27T10:31:33;22.52;;;13.32;;
56493;SDS011;42392;42.648;27.652;2024-01-27T10:33:37;34.42;;;25.92;;
56493;SDS011;42392;42.648;27.652;2024-01-27T10:35:40;26.13;;;19.90;;
56493;SDS011;42392;42.648;27.652;2024-01-27T10:37:44;14.13;;;7.88;;
56493;SDS011;42392;42.648;27.652;2024-01-27T10:39:46;20.88;;;9.60;;
56493;SDS011;42392;42.648;27.652;2024-01-27T10:41:49;11.77;;;6.38;;
56493;SDS011;42392;42.648;27.652;2024-01-27T10:43:52;14.30;;;6.32;;
56493;SDS011;42392;42.648;27.652;2024-01-27T10:45:54;12.40;;;5.50;;
56493;SDS011;42392;42.648;27.652;2024-01-27T10:47:58;19.35;;;10.50;;
56493;SDS011;42392;42.648;27.652;2024-01-27T10:50:01;25.75;;;13.25;;
56493;SDS011;42392;42.648;27.652;2024-01-27T10:52:05;16.70;;;9.77;;
56493;SDS011;42392;42.648;27.652;2024-01-27T10:54:18;14.57;;;7.28;;
56493;SDS011;42392;42.648;27.652;2024-01-27T10:56:29;22.75;;;11.90;;
56493;SDS011;42392;42.648;27.652;2024-01-27T10:58:33;16.05;;;8.68;;
56493;SDS011;42392;42.648;27.652;2024-01-27T11:00:43;14.30;;;7.63;;
56493;SDS011;42392;42.648;27.652;2024-01-27T11:02:47;25.70;;;13.43;;
56493;SDS011;42392;42.648;27.652;2024-01-27T11:04:54;12.63;;;6.85;;
56493;SDS011;42392;42.648;27.652;2024-01-27T11:06:57;22.10;;;11.18;;
56493;SDS011;42392;42.648;27.652;2024-01-27T11:09:00;13.18;;;5.68;;
56493;SDS011;42392;42.648;27.652;2024-01-27T11:11:06;14.38;;;7.10;;
56493;SDS011;42392;42.648;27.652;2024-01-27T11:13:08;17.63;;;8.52;;
56493;SDS011;42392;42.648;27.652;2024-01-27T11:15:10;14.75;;;6.97;;
56493;SDS011;42392;42.648;27.652;2024-01-27T11:17:12;12.93;;;7.05;;
56493;SDS011;42392;42.648;27.652;2024-01-27T11:19:16;14.63;;;8.73;;
56493;SDS011;42392;42.648;27.652;2024-01-27T11:21:19;19.85;;;10.63;;
56493;SDS011;42392;42.648;27.652;2024-01-27T11:23:30;12.57;;;6.43;;
56493;SDS011;42392;42.648;27.652;2024-01-27T11:25:34;25.33;;;13.55;;
56493;SDS011;42392;42.648;27.652;2024-01-27T11:27:36;18.65;;;10.02;;
56493;SDS011;42392;42.648;27.652;2024-01-27T11:29:46;18.92;;;9.70;;
56493;SDS011;42392;42.648;27.652;2024-01-27T11:31:49;12.25;;;7.07;;
56493;SDS011;42392;42.648;27.652;2024-01-27T11:33:51;14.65;;;7.75;;
56493;SDS011;42392;42.648;27.652;2024-01-27T11:36:02;9.95;;;5.20;;
56493;SDS011;42392;42.648;27.652;2024-01-27T11:38:06;13.60;;;9.35;;
56493;SDS011;42392;42.648;27.652;2024-01-27T11:40:08;17.65;;;8.73;;
56493;SDS011;42392;42.648;27.652;2024-01-27T11:42:12;15.80;;;8.27;;
56493;SDS011;42392;42.648;27.652;2024-01-27T11:44:15;18.80;;;10.68;;
56493;SDS011;42392;42.648;27.652;2024-01-27T11:46:19;16.90;;;8.43;;
56493;SDS011;42392;42.648;27.652;2024-01-27T11:48:22;19.27;;;10.90;;
56493;SDS011;42392;42.648;27.652;2024-01-27T11:50:24;18.38;;;10.18;;
56493;SDS011;42392;42.648;27.652;2024-01-27T11:52:27;16.65;;;7.97;;